createdAt,value
2022-07-29T00:03:13.245Z,98645.6
2022-07-29T00:08:52.257Z,98632.6
2022-07-29T00:14:31.529Z,98636.2
2022-07-29T00:20:06.769Z,98632.4
2022-07-29T00:25:41.633Z,98632.2
2022-07-29T00:31:17.103Z,98626
2022-07-29T00:36:52.840Z,98625.4
2022-07-29T00:42:27.659Z,98638.9
2022-07-29T00:48:03.311Z,98634.8
2022-07-29T00:53:38.031Z,98634.6
2022-07-29T00:59:12.839Z,98652.5
2022-07-29T01:04:47.636Z,98648.7
2022-07-29T01:10:22.399Z,98591.8
2022-07-29T01:15:57.747Z,98629.7
2022-07-29T01:21:33.199Z,98607.1
2022-07-29T01:27:08.762Z,98619.7
2022-07-29T01:32:44.023Z,98630.7
2022-07-29T01:38:20.612Z,98620.1
2022-07-29T01:43:55.369Z,98608.3
2022-07-29T01:49:30.934Z,98626.3
2022-07-29T01:55:05.753Z,98630
2022-07-29T02:00:44.476Z,98655.4
2022-07-29T02:06:19.332Z,98609
2022-07-29T02:11:55.736Z,98591.6
2022-07-29T02:17:52.395Z,98599
2022-07-29T02:23:25.086Z,98633.7
2022-07-29T02:28:59.840Z,98652.3
2022-07-29T02:34:34.585Z,98636.8
2022-07-29T02:40:09.786Z,98626.1
2022-07-29T02:45:45.428Z,98645.5
2022-07-29T02:51:45.679Z,98676.3
2022-07-29T02:57:21.615Z,98653.8
2022-07-29T03:02:56.294Z,98632.8
2022-07-29T03:08:31.151Z,98644
2022-07-29T03:14:05.778Z,98645.7
2022-07-29T03:19:40.645Z,98640
2022-07-29T03:25:15.951Z,98672.9
2022-07-29T03:30:51.858Z,98657.5
2022-07-29T03:36:26.942Z,98638.2
2022-07-29T03:42:01.825Z,98641.6
2022-07-29T03:48:00.124Z,98621.5
2022-07-29T03:53:36.407Z,98608.9
2022-07-29T03:59:11.317Z,98623.4
2022-07-29T04:04:46.209Z,98616.1
2022-07-29T04:10:35.139Z,98624.3
2022-07-29T04:16:33.325Z,98635.9
2022-07-29T04:22:06.764Z,98653.1
2022-07-29T04:27:42.483Z,98648
2022-07-29T04:33:17.274Z,98668.1
2022-07-29T04:38:52.470Z,98673.5
2022-07-29T04:44:29.564Z,98663.7
2022-07-29T04:50:17.716Z,98658.1
2022-07-29T04:55:52.429Z,98648.7
2022-07-29T05:01:27.503Z,98669.9
2022-07-29T05:07:02.805Z,98690.2
2022-07-29T05:12:37.670Z,98696.1
2022-07-29T05:18:34.299Z,98690.1
2022-07-29T05:24:07.167Z,98686
2022-07-29T05:29:46.278Z,98697.5
2022-07-29T05:35:22.268Z,98702.7
2022-07-29T05:40:56.978Z,98716.2
2022-07-29T05:46:33.797Z,98722.5
2022-07-29T05:52:10.355Z,98732.1
2022-07-29T05:57:45.310Z,98728.6
2022-07-29T06:03:20.213Z,98734.6
2022-07-29T06:08:55.077Z,98765.7
2022-07-29T06:14:30.018Z,98768.9
2022-07-29T06:20:04.633Z,98788.6
2022-07-29T06:25:40.557Z,98806.4
2022-07-29T06:31:15.707Z,98774.1
2022-07-29T06:36:54.486Z,98791
2022-07-29T06:42:30.977Z,98818.4
2022-07-29T06:48:05.926Z,98824
2022-07-29T06:54:04.238Z,98828.3
2022-07-29T06:59:39.502Z,98824.4
2022-07-29T07:05:14.139Z,98817.5
2022-07-29T07:10:49.019Z,98827.5
2022-07-29T07:16:45.902Z,98819.6
2022-07-29T07:22:20.205Z,98813.8
2022-07-29T07:27:56.046Z,98797.1
2022-07-29T07:33:31.045Z,98803.6
2022-07-29T07:39:05.980Z,98815
2022-07-29T07:45:16.781Z,98804.6
2022-07-29T07:50:55.239Z,98812.7
2022-07-29T07:56:35.786Z,98815
2022-07-29T08:02:11.505Z,98829.4
2022-07-29T08:07:47.973Z,98809.1
2022-07-29T08:13:22.978Z,98815.9
2022-07-29T08:19:20.765Z,98819.3
2022-07-29T08:24:56.001Z,98816.9
2022-07-29T08:30:30.854Z,98816.1
2022-07-29T08:36:06.575Z,98812.4
2022-07-29T08:41:58.239Z,98808.7
2022-07-29T08:47:34.602Z,98807.2
2022-07-29T08:53:13.528Z,98806
2022-07-29T08:58:53.697Z,98799.5
2022-07-29T09:04:31.721Z,98796.6
2022-07-29T09:10:07.719Z,98800.5
2022-07-29T09:15:42.877Z,98794.5
2022-07-29T09:21:17.954Z,98805.2
2022-07-29T09:26:54.044Z,98803.1
2022-07-29T09:32:31.484Z,98817.3
2022-07-29T09:38:06.653Z,98806.3
2022-07-29T09:43:42.430Z,98829.9
2022-07-29T09:49:18.576Z,98810.2
2022-07-29T09:54:54.054Z,98829.9
2022-07-29T10:00:28.953Z,98836.1
2022-07-29T10:06:04.533Z,98853.9
2022-07-29T10:11:50.308Z,98846.9
2022-07-29T10:17:47.175Z,98846.4
2022-07-29T10:23:19.976Z,98855.3
2022-07-29T10:28:55.602Z,98852
2022-07-29T10:34:31.454Z,98853
2022-07-29T10:40:06.127Z,98853.5
2022-07-29T10:45:46.656Z,98862.2
2022-07-29T10:51:28.681Z,98873
2022-07-29T10:57:05.829Z,98875.8
2022-07-29T12:12:44.126Z,98881.3
2022-07-29T12:18:25.362Z,98880.2
2022-07-29T12:24:10.050Z,98881.6
2022-07-29T12:29:49.368Z,98886.1
2022-07-29T12:35:25.370Z,98885.9
2022-07-29T12:41:00.180Z,98882.4
2022-07-29T12:46:35.567Z,98883
2022-07-29T12:52:12.178Z,98886.6
2022-07-29T12:57:47.292Z,98895.8
2022-07-29T13:03:25.387Z,98896
2022-07-29T13:09:02.095Z,98889.4
2022-07-29T13:14:36.787Z,98887.7
2022-07-29T13:20:12.804Z,98884.9
2022-07-29T13:25:48.782Z,98891
2022-07-29T13:31:24.461Z,98900.3
2022-07-29T13:37:00.325Z,98898.8
2022-07-29T13:42:35.413Z,98902.9
2022-07-29T13:48:10.209Z,98904.2
2022-07-29T13:53:45.111Z,98909.2
2022-07-29T13:59:19.840Z,98909.3
2022-07-29T14:04:55.400Z,98915
2022-07-29T14:10:31.554Z,98920.5
2022-07-29T14:16:28.792Z,98917.8
2022-07-29T14:22:04.163Z,98923.5
2022-07-29T14:27:42.443Z,98919.7
2022-07-29T14:33:18.748Z,98908.7
2022-07-29T14:38:53.672Z,98906.4
2022-07-29T14:44:29.413Z,98899.6
2022-07-29T14:50:05.461Z,98898.4
2022-07-29T14:55:40.393Z,98897.3
2022-07-29T15:01:15.771Z,98888
2022-07-29T15:06:51.667Z,98890.2
2022-07-29T15:12:26.522Z,98891
2022-07-29T15:18:02.445Z,98890.7
2022-07-29T15:23:37.687Z,98884.2
2022-07-29T15:29:12.475Z,98881.5
2022-07-29T15:34:47.207Z,98882.4
2022-07-29T15:40:22.444Z,98877.8
2022-07-29T15:45:57.745Z,98877.2
2022-07-29T15:51:33.049Z,98874.3
2022-07-29T15:57:07.928Z,98876.4
2022-07-29T16:02:42.967Z,98879.7
2022-07-29T16:08:25.782Z,98879.9
2022-07-29T16:14:01.511Z,98889.9
2022-07-29T16:19:38.506Z,98891.5
2022-07-29T16:25:13.270Z,98900
2022-07-29T16:30:48.003Z,98899.1
2022-07-29T16:36:22.839Z,98899.5
2022-07-29T16:42:05.701Z,98899.2
2022-07-29T16:47:41.855Z,98902.5
2022-07-29T16:53:17.997Z,98904
2022-07-29T16:58:52.713Z,98912.4
2022-07-29T17:04:28.379Z,98913.4
2022-07-29T17:10:04.827Z,98917.6
2022-07-29T17:15:40.378Z,98925.1
2022-07-29T17:21:15.238Z,98926.5
2022-07-29T17:26:50.579Z,98919.9
2022-07-29T17:32:25.506Z,98914.4
2022-07-29T17:38:00.587Z,98921.9
2022-07-29T17:43:40.049Z,98922
2022-07-29T17:49:16.168Z,98928.7
2022-07-29T17:54:53.062Z,98938.5
2022-07-29T18:00:28.629Z,98938.5
2022-07-29T18:06:04.044Z,98939.5
2022-07-29T18:11:46.311Z,98946.7
2022-07-29T18:17:58.430Z,98956.7
2022-07-29T18:23:31.283Z,98966.7
2022-07-29T18:29:11.211Z,98966.9
2022-07-29T18:34:46.887Z,98976
2022-07-29T18:40:21.838Z,98978.1
2022-07-29T18:45:57.781Z,98978.9
2022-07-29T18:51:33.289Z,98980.4
2022-07-29T18:57:57.731Z,98982.1
2022-07-29T19:03:32.932Z,98986.8
2022-07-29T19:09:07.721Z,98989.6
2022-07-29T19:14:43.462Z,98997.9
2022-07-29T19:20:18.274Z,98998.1
2022-07-29T19:25:54.597Z,99008.7
2022-07-29T19:31:30.025Z,99009.8
2022-07-29T19:37:06.141Z,99021.1
2022-07-29T19:42:41.348Z,99022.2
2022-07-29T19:48:16.072Z,99019.7
2022-07-29T19:53:51.071Z,99033.5
2022-07-29T19:59:29.860Z,99040.1
2022-07-29T20:05:04.925Z,99052.2
2022-07-29T20:10:39.818Z,99053.4
2022-07-29T20:16:36.462Z,99063.6
2022-07-29T20:22:09.103Z,99070.3
2022-07-29T20:27:43.773Z,99075.7
2022-07-29T20:33:18.683Z,99085.8
2022-07-29T20:38:53.291Z,99091.5
2022-07-29T20:44:28.298Z,99095.9
2022-07-29T20:50:03.146Z,99103.9
2022-07-29T20:55:37.786Z,99108.1
2022-07-29T21:01:13.997Z,99113
2022-07-29T21:06:49.216Z,99118.2
2022-07-29T21:12:25.029Z,99117
2022-07-29T21:18:01.149Z,99114.7
2022-07-29T21:23:35.979Z,99113.4
2022-07-29T21:29:10.773Z,99109.2
2022-07-29T21:34:45.548Z,99111.4
2022-07-29T21:40:21.597Z,99117.8
2022-07-29T21:45:56.913Z,99122.9
2022-07-29T21:51:33.342Z,99124.8
2022-07-29T21:57:09.729Z,99126.2
2022-07-29T22:02:44.458Z,99123.2
2022-07-29T22:08:19.330Z,99122.1
2022-07-29T22:13:54.176Z,99126.6
2022-07-29T22:19:50.650Z,99127
2022-07-29T22:25:23.386Z,99127.5
2022-07-29T22:30:58.739Z,99128
2022-07-29T22:36:34.680Z,99132.4
2022-07-29T22:42:11.473Z,99135.3
2022-07-29T22:47:49.217Z,99137.9
2022-07-29T22:53:34.116Z,99141
2022-07-29T22:59:08.827Z,99145.8
2022-07-29T23:04:43.509Z,99152.2
2022-07-29T23:10:18.368Z,99152
2022-07-29T23:15:54.085Z,99154.3
2022-07-29T23:21:28.926Z,99152
2022-07-29T23:27:04.980Z,99146.5
2022-07-29T23:32:39.929Z,99146.7
2022-07-29T23:38:14.848Z,99139.6
2022-07-29T23:43:50.875Z,99133.4
2022-07-29T23:49:26.976Z,99133
2022-07-29T23:55:39.830Z,99129.3
